Time;durP1;ratioP1;P1;durP2;ratioP2;P2;SDS_P1;SDS_P2;PMS_P1;PMS_P2;Temp;Humidity;BMP_temperature;BMP_pressure;BME280_temperature;BME280_humidity;BME280_pressure;Samples;Min_cycle;Max_cycle;Signal;HPM_P1;HPM_P2
2022/12/03 00:01:00;;;;;;;33.95;14.68;;;1.20;99.90;;;;;;4722718;28;9999972;-84
2022/12/03 00:03:26;;;;;;;32.00;14.15;;;1.20;99.90;;;;;;5076860;28;20070;-83
2022/12/03 00:05:51;;;;;;;28.85;13.32;;;1.20;99.90;;;;;;5080997;28;20513;-84
2022/12/03 00:08:17;;;;;;;29.27;13.85;;;1.20;99.90;;;;;;5083304;28;20028;-84
2022/12/03 00:10:42;;;;;;;29.00;13.35;;;1.20;99.90;;;;;;5078271;28;20031;-84
2022/12/03 00:13:08;;;;;;;25.23;13.02;;;1.20;99.90;;;;;;5080019;28;20588;-84
2022/12/03 00:15:34;;;;;;;26.45;13.50;;;1.20;99.90;;;;;;5083385;28;20028;-84
2022/12/03 00:17:59;;;;;;;29.75;13.45;;;1.20;99.90;;;;;;5079573;28;20035;-84
2022/12/03 00:20:25;;;;;;;26.02;13.10;;;1.20;99.90;;;;;;5081813;28;20021;-84
2022/12/03 00:22:51;;;;;;;26.83;13.20;;;1.20;99.90;;;;;;5082112;28;20024;-84
2022/12/03 00:25:17;;;;;;;26.88;12.70;;;1.20;99.90;;;;;;5082352;28;20024;-84
2022/12/03 00:27:42;;;;;;;24.73;12.30;;;1.20;99.90;;;;;;5081923;28;20035;-84
2022/12/03 00:30:10;;;;;;;26.38;13.20;;;1.20;99.90;;;;;;5079681;28;20020;-83
2022/12/03 00:32:36;;;;;;;22.63;11.50;;;1.20;99.90;;;;;;5083822;28;20486;-84
2022/12/03 00:35:01;;;;;;;26.02;12.85;;;1.20;99.90;;;;;;5080981;28;20024;-84
2022/12/03 00:37:27;;;;;;;24.25;12.25;;;1.20;99.90;;;;;;5081778;28;20397;-83
2022/12/03 00:39:53;;;;;;;23.08;12.15;;;1.20;99.90;;;;;;5080498;28;20047;-84
2022/12/03 00:42:18;;;;;;;25.95;13.45;;;1.20;99.90;;;;;;5078250;28;20039;-83
2022/12/03 00:44:44;;;;;;;24.65;12.35;;;1.20;99.90;;;;;;5074302;28;20174;-82
2022/12/03 00:47:09;;;;;;;24.67;11.70;;;1.20;99.90;;;;;;5074852;28;20509;-83
2022/12/03 00:49:35;;;;;;;22.75;12.15;;;1.20;99.90;;;;;;5083426;28;20039;-83
2022/12/03 00:52:01;;;;;;;26.38;12.55;;;1.20;99.90;;;;;;5077758;28;20028;-82
2022/12/03 00:54:26;;;;;;;27.10;12.95;;;1.20;99.90;;;;;;5080908;28;20032;-82
2022/12/03 00:56:52;;;;;;;27.30;12.55;;;1.20;99.90;;;;;;5076075;28;20032;-82
2022/12/03 00:59:18;;;;;;;24.90;12.75;;;1.20;99.90;;;;;;5080890;28;20401;-82
2022/12/03 01:01:43;;;;;;;25.23;12.73;;;1.20;99.90;;;;;;5071298;28;20390;-83
2022/12/03 01:04:09;;;;;;;25.98;13.10;;;1.20;99.90;;;;;;5082436;28;20474;-82
2022/12/03 01:06:34;;;;;;;25.50;12.82;;;1.20;99.90;;;;;;5079620;28;20055;-82
2022/12/03 01:09:00;;;;;;;26.13;13.00;;;1.20;99.90;;;;;;5077701;28;20031;-83
2022/12/03 01:11:38;;;;;;;25.15;12.98;;;1.20;99.90;;;;;;5080921;28;20046;-82
2022/12/03 01:14:12;;;;;;;25.65;12.85;;;1.20;99.90;;;;;;5075425;28;20042;-82
2022/12/03 01:16:38;;;;;;;25.98;13.48;;;1.20;99.90;;;;;;5081966;28;20028;-83
2022/12/03 01:19:05;;;;;;;27.45;13.48;;;1.20;99.90;;;;;;5079102;28;20565;-83
2022/12/03 01:21:31;;;;;;;27.38;13.45;;;1.20;99.90;;;;;;5080481;28;20028;-82
2022/12/03 01:23:57;;;;;;;27.55;13.95;;;1.30;99.90;;;;;;5076092;28;20543;-82
2022/12/03 01:26:24;;;;;;;27.55;14.13;;;1.30;99.90;;;;;;5077650;28;20032;-82
2022/12/03 01:28:49;;;;;;;26.15;13.80;;;1.20;99.90;;;;;;5077833;28;20057;-82
2022/12/03 01:33:59;;;;;;;30.05;14.35;;;1.20;99.90;;;;;;5074186;28;22029;-82
2022/12/03 01:36:25;;;;;;;28.55;15.02;;;1.20;99.90;;;;;;5077589;28;20036;-82
2022/12/03 01:38:51;;;;;;;30.90;15.25;;;1.20;99.90;;;;;;5080775;28;20035;-82
2022/12/03 01:41:18;;;;;;;29.17;15.00;;;1.20;99.90;;;;;;5081097;28;20093;-82
2022/12/03 01:43:44;;;;;;;28.73;14.60;;;1.10;99.90;;;;;;5079173;28;20075;-82
2022/12/03 01:46:18;;;;;;;31.38;15.70;;;1.10;99.90;;;;;;5078450;28;20031;-82
2022/12/03 01:48:44;;;;;;;34.00;15.40;;;1.10;99.90;;;;;;5080867;28;20039;-81
2022/12/03 01:51:12;;;;;;;27.02;14.43;;;1.10;99.90;;;;;;5075446;28;20039;-82
2022/12/03 01:53:37;;;;;;;28.75;13.77;;;1.10;99.90;;;;;;5079752;28;20385;-81
2022/12/03 01:56:03;;;;;;;30.98;15.38;;;1.10;99.90;;;;;;5073483;28;20038;-82
2022/12/03 01:58:29;;;;;;;31.33;14.52;;;1.10;99.90;;;;;;5070973;28;20028;-81
2022/12/03 02:01:00;;;;;;;27.98;14.20;;;1.10;99.90;;;;;;5070713;28;20118;-81
2022/12/03 02:03:26;;;;;;;28.52;14.57;;;1.10;99.90;;;;;;5079745;28;20733;-81
2022/12/03 02:05:52;;;;;;;27.75;14.00;;;1.10;99.90;;;;;;5082201;28;20028;-81
2022/12/03 02:08:30;;;;;;;29.67;14.93;;;1.10;99.90;;;;;;5078378;28;20110;-81
2022/12/03 02:11:05;;;;;;;28.48;14.00;;;1.00;99.90;;;;;;5076665;28;20024;-81
2022/12/03 02:13:31;;;;;;;26.80;14.15;;;1.00;99.90;;;;;;5080106;28;20620;-81
2022/12/03 02:15:57;;;;;;;30.60;14.30;;;1.00;99.90;;;;;;5077638;28;20765;-81
2022/12/03 02:18:23;;;;;;;30.50;14.15;;;1.00;99.90;;;;;;5074786;28;20681;-81
2022/12/03 02:21:08;;;;;;;28.80;13.82;;;0.90;99.90;;;;;;5081848;28;20458;-81
2022/12/03 02:23:52;;;;;;;28.50;13.60;;;0.90;99.90;;;;;;5080427;28;20025;-81
2022/12/03 02:26:18;;;;;;;24.55;12.90;;;0.90;99.90;;;;;;5081894;28;20034;-81
2022/12/03 02:28:43;;;;;;;25.92;13.15;;;0.90;99.90;;;;;;5082466;28;20020;-81
2022/12/03 02:31:09;;;;;;;27.30;13.80;;;0.90;99.90;;;;;;5081947;28;20032;-81
2022/12/03 02:33:35;;;;;;;29.00;13.80;;;0.90;99.90;;;;;;5078646;28;20075;-81
2022/12/03 02:36:01;;;;;;;27.50;12.85;;;0.90;99.90;;;;;;5081962;28;20446;-81
2022/12/03 02:38:29;;;;;;;29.20;13.52;;;0.90;99.90;;;;;;5083936;28;20111;-80
2022/12/03 02:40:59;;;;;;;25.70;13.20;;;0.90;99.90;;;;;;5083672;28;20054;-81
2022/12/03 02:43:24;;;;;;;30.10;14.10;;;0.80;99.90;;;;;;5076708;28;20048;-81
2022/12/03 02:45:56;;;;;;;28.02;13.63;;;0.80;99.90;;;;;;5079058;28;20957;-82
2022/12/03 02:48:26;;;;;;;27.52;13.98;;;0.80;99.90;;;;;;5079637;28;20106;-81
2022/12/03 02:50:59;;;;;;;30.27;14.73;;;0.90;99.90;;;;;;5079766;28;20054;-81
2022/12/03 02:53:46;;;;;;;30.02;13.50;;;0.80;99.90;;;;;;5071237;28;20722;-82
2022/12/03 02:56:16;;;;;;;28.30;13.68;;;0.80;99.90;;;;;;5076224;28;20071;-82
2022/12/03 02:58:45;;;;;;;31.42;14.05;;;0.80;99.90;;;;;;5075555;28;20031;-82
2022/12/03 03:01:11;;;;;;;27.55;13.18;;;0.80;99.90;;;;;;5076716;28;20513;-82
2022/12/03 03:03:37;;;;;;;28.55;14.43;;;0.80;99.90;;;;;;5076811;28;20028;-82
2022/12/03 03:06:05;;;;;;;27.08;13.85;;;0.80;99.90;;;;;;5079506;28;20023;-83
2022/12/03 03:08:32;;;;;;;28.08;13.55;;;0.80;99.90;;;;;;5080999;28;20106;-82
2022/12/03 03:10:59;;;;;;;29.88;14.05;;;0.80;99.90;;;;;;5080614;28;20074;-81
2022/12/03 03:13:25;;;;;;;27.30;13.70;;;0.80;99.90;;;;;;5083422;28;20478;-81
2022/12/03 03:15:51;;;;;;;31.60;15.07;;;0.80;99.90;;;;;;5077452;28;20016;-82
2022/12/03 03:18:17;;;;;;;28.77;15.05;;;0.70;99.90;;;;;;5084134;28;20024;-82
2022/12/03 03:20:44;;;;;;;26.83;14.10;;;0.70;99.90;;;;;;5079499;28;20162;-82
2022/12/03 03:23:18;;;;;;;34.35;15.68;;;0.80;99.90;;;;;;5082519;28;20016;-81
2022/12/03 03:25:48;;;;;;;31.30;15.10;;;0.80;99.90;;;;;;5083823;28;20563;-82
2022/12/03 03:28:15;;;;;;;29.50;14.75;;;0.70;99.90;;;;;;5083753;28;20024;-82
2022/12/03 03:30:42;;;;;;;30.98;15.10;;;0.80;99.90;;;;;;5083329;28;20059;-81
2022/12/03 03:33:08;;;;;;;30.58;15.88;;;0.70;99.90;;;;;;5081830;28;20040;-82
2022/12/03 03:35:35;;;;;;;30.52;14.63;;;0.70;99.90;;;;;;5082999;28;20032;-82
2022/12/03 03:38:01;;;;;;;32.03;15.18;;;0.80;99.90;;;;;;5083439;28;20379;-82
2022/12/03 03:40:27;;;;;;;28.77;14.73;;;0.70;99.90;;;;;;5079917;28;20027;-82
2022/12/03 03:42:54;;;;;;;31.98;15.40;;;0.80;99.90;;;;;;5080856;28;20107;-83
2022/12/03 03:45:19;;;;;;;27.83;14.48;;;0.80;99.90;;;;;;5079284;28;20055;-82
2022/12/03 03:47:45;;;;;;;29.98;15.35;;;0.80;99.90;;;;;;5080011;28;20489;-82
2022/12/03 03:50:12;;;;;;;31.40;15.82;;;0.80;99.90;;;;;;5086035;28;20028;-83
2022/12/03 03:52:40;;;;;;;29.35;14.82;;;0.80;99.90;;;;;;5079212;28;20504;-83
2022/12/03 03:55:07;;;;;;;33.35;15.82;;;0.80;99.90;;;;;;5081086;28;20054;-82
2022/12/03 03:57:32;;;;;;;32.08;15.00;;;0.70;99.90;;;;;;5080543;28;20081;-82
2022/12/03 03:59:59;;;;;;;29.98;15.15;;;0.80;99.90;;;;;;5084055;28;20024;-82
2022/12/03 04:02:26;;;;;;;31.70;15.38;;;0.70;99.90;;;;;;5073315;28;20390;-82
2022/12/03 04:04:52;;;;;;;29.65;15.60;;;0.80;99.90;;;;;;5084039;28;20102;-82
2022/12/03 04:07:18;;;;;;;28.95;14.85;;;0.70;99.90;;;;;;5081468;28;20036;-83
2022/12/03 04:09:44;;;;;;;33.03;16.15;;;0.70;99.90;;;;;;5080289;28;20035;-82
2022/12/03 04:14:55;;;;;;;31.30;15.57;;;0.80;99.90;;;;;;5082553;28;20035;-82
2022/12/03 04:17:21;;;;;;;31.48;15.68;;;0.80;99.90;;;;;;5080927;28;20049;-82
2022/12/03 04:19:47;;;;;;;28.85;14.68;;;0.80;99.90;;;;;;5085086;28;20103;-83
2022/12/03 04:28:47;;;;;;;30.65;15.20;;;0.80;99.90;;;;;;5079317;28;20026;-83
2022/12/03 04:30:27;;;;;;;34.67;16.17;;;0.80;99.90;;;;;;5079275;28;20035;-83
2022/12/03 04:35:43;;;;;;;33.55;15.90;;;0.80;99.90;;;;;;5079432;28;20117;-81
2022/12/03 04:38:13;;;;;;;33.40;16.63;;;0.80;99.90;;;;;;5079555;28;20024;-82
2022/12/03 04:44:31;;;;;;;35.05;16.88;;;0.80;99.90;;;;;;5068413;28;20040;-82
2022/12/03 04:46:23;;;;;;;34.92;16.38;;;0.80;99.90;;;;;;5074929;28;20024;-82
2022/12/03 04:48:49;;;;;;;35.78;16.70;;;0.90;99.90;;;;;;5082522;28;20043;-82
2022/12/03 04:51:14;;;;;;;31.33;17.15;;;0.90;99.90;;;;;;5081452;28;20012;-82
2022/12/03 04:53:40;;;;;;;32.33;17.08;;;0.80;99.90;;;;;;5080930;28;20024;-82
2022/12/03 04:56:06;;;;;;;32.72;16.73;;;0.80;99.90;;;;;;5074696;28;20505;-82
2022/12/03 04:58:32;;;;;;;32.28;15.85;;;0.80;99.90;;;;;;5078504;28;20038;-82
2022/12/03 05:00:57;;;;;;;33.08;16.42;;;0.90;99.90;;;;;;5079607;28;20026;-81
2022/12/03 05:03:23;;;;;;;32.33;16.45;;;0.90;99.90;;;;;;5073554;28;20474;-82
2022/12/03 05:05:48;;;;;;;36.75;17.35;;;0.90;99.90;;;;;;5074749;28;20051;-82
2022/12/03 05:08:14;;;;;;;32.38;16.42;;;0.90;99.90;;;;;;5074862;28;20414;-82
2022/12/03 05:10:39;;;;;;;30.83;16.40;;;0.80;99.90;;;;;;5071914;28;20024;-82
2022/12/03 05:13:05;;;;;;;32.25;16.30;;;0.80;99.90;;;;;;5071644;28;20485;-83
2022/12/03 05:15:31;;;;;;;33.95;17.35;;;0.80;99.90;;;;;;5077119;28;20016;-84
2022/12/03 05:17:56;;;;;;;31.70;16.13;;;0.90;99.90;;;;;;5082489;28;20118;-83
2022/12/03 05:20:40;;;;;;;34.22;16.90;;;0.90;99.90;;;;;;5080108;28;20463;-83
2022/12/03 05:23:06;;;;;;;36.13;17.42;;;0.90;99.90;;;;;;5072910;28;20025;-82
2022/12/03 05:25:32;;;;;;;34.53;18.17;;;0.90;99.90;;;;;;5077622;28;20052;-83
2022/12/03 05:27:58;;;;;;;35.58;18.20;;;0.90;99.90;;;;;;5082296;28;20051;-83
2022/12/03 05:30:23;;;;;;;33.33;17.33;;;0.90;99.90;;;;;;5079825;28;20036;-83
2022/12/03 05:32:49;;;;;;;37.88;18.15;;;0.90;99.90;;;;;;5074372;28;20028;-83
2022/12/03 05:35:15;;;;;;;35.10;18.15;;;0.90;99.90;;;;;;5074251;28;20107;-83
2022/12/03 05:37:40;;;;;;;35.03;17.75;;;0.90;99.90;;;;;;5078539;28;20393;-82
2022/12/03 05:40:07;;;;;;;33.60;17.48;;;0.90;99.90;;;;;;5081618;28;20051;-82
2022/12/03 05:45:17;;;;;;;36.45;18.10;;;0.90;99.90;;;;;;5074339;28;20054;-82
2022/12/03 05:47:43;;;;;;;35.72;17.88;;;0.90;99.90;;;;;;5081594;28;20505;-81
2022/12/03 05:50:09;;;;;;;36.92;18.08;;;0.90;99.90;;;;;;5076884;28;20023;-81
2022/12/03 05:52:34;;;;;;;37.50;18.55;;;0.90;99.90;;;;;;5076448;28;20077;-82
2022/12/03 05:55:00;;;;;;;39.85;18.40;;;0.80;99.90;;;;;;5076907;28;20016;-82
2022/12/03 05:57:26;;;;;;;37.75;18.17;;;0.90;99.90;;;;;;5079913;28;20021;-82
2022/12/03 05:59:51;;;;;;;37.42;18.80;;;0.80;99.90;;;;;;5079657;28;20122;-82
2022/12/03 06:02:17;;;;;;;36.00;18.73;;;0.80;99.90;;;;;;5076793;28;20023;-83
2022/12/03 06:04:42;;;;;;;38.50;19.02;;;0.80;99.90;;;;;;5075458;28;20646;-82
2022/12/03 06:07:08;;;;;;;33.15;17.02;;;0.90;99.90;;;;;;5077512;28;20031;-82
2022/12/03 06:09:33;;;;;;;37.28;18.52;;;0.80;99.90;;;;;;5079357;28;20030;-83
2022/12/03 06:11:59;;;;;;;38.20;18.60;;;0.80;99.90;;;;;;5083813;28;20032;-83
2022/12/03 06:14:25;;;;;;;35.80;17.45;;;0.80;99.90;;;;;;5080805;28;20048;-83
2022/12/03 06:16:51;;;;;;;34.25;17.25;;;0.80;99.90;;;;;;5074787;28;20028;-82
2022/12/03 06:19:16;;;;;;;40.17;19.35;;;0.80;99.90;;;;;;5075344;28;20672;-83
2022/12/03 06:21:42;;;;;;;34.75;16.98;;;0.80;99.90;;;;;;5080794;28;20111;-83
2022/12/03 06:24:08;;;;;;;38.75;18.85;;;0.80;99.90;;;;;;5077309;28;20016;-82
2022/12/03 06:26:33;;;;;;;34.47;17.67;;;0.80;99.90;;;;;;5081009;28;20552;-83
2022/12/03 06:28:59;;;;;;;35.63;18.77;;;0.80;99.90;;;;;;5077957;28;20055;-83
2022/12/03 06:31:25;;;;;;;33.50;17.42;;;0.80;99.90;;;;;;5074894;28;20059;-83
2022/12/03 06:33:50;;;;;;;35.60;17.85;;;0.80;99.90;;;;;;5077515;28;20020;-83
2022/12/03 06:36:16;;;;;;;35.22;17.50;;;0.80;99.90;;;;;;5079406;28;20040;-84
2022/12/03 06:38:41;;;;;;;35.58;18.20;;;0.80;99.90;;;;;;5077562;28;20557;-84
2022/12/03 06:41:07;;;;;;;32.08;17.00;;;0.80;99.90;;;;;;5086341;28;20051;-83
2022/12/03 06:43:33;;;;;;;37.33;17.58;;;0.80;99.90;;;;;;5075034;28;20051;-82
2022/12/03 06:45:58;;;;;;;37.15;17.73;;;0.80;99.90;;;;;;5082863;28;20533;-80
2022/12/03 06:48:24;;;;;;;32.83;16.80;;;0.90;99.90;;;;;;5075160;28;20044;-74
2022/12/03 06:50:49;;;;;;;33.55;16.92;;;0.80;99.90;;;;;;5081469;28;20107;-74
2022/12/03 06:53:15;;;;;;;33.67;17.15;;;0.80;99.90;;;;;;5082421;28;20026;-75
2022/12/03 06:55:41;;;;;;;34.88;17.45;;;0.80;99.90;;;;;;5084213;28;20019;-74
2022/12/03 06:58:06;;;;;;;35.13;17.13;;;0.70;99.90;;;;;;5077298;28;20093;-75
2022/12/03 07:00:32;;;;;;;32.97;17.58;;;0.70;99.90;;;;;;5077850;28;20016;-74
2022/12/03 07:02:57;;;;;;;34.63;17.38;;;0.70;99.90;;;;;;5077666;28;20543;-74
2022/12/03 07:05:23;;;;;;;33.22;16.95;;;0.80;99.90;;;;;;5075657;28;20043;-75
2022/12/03 07:07:50;;;;;;;32.03;17.35;;;0.80;99.90;;;;;;5085574;28;20055;-74
2022/12/03 07:10:17;;;;;;;34.38;17.67;;;0.80;99.90;;;;;;5083086;28;20435;-75
2022/12/03 07:12:43;;;;;;;34.38;17.65;;;0.80;99.90;;;;;;5077818;28;20056;-75
2022/12/03 07:15:09;;;;;;;37.83;18.67;;;0.80;99.90;;;;;;5082799;28;20131;-75
2022/12/03 07:17:35;;;;;;;34.50;18.38;;;0.90;99.90;;;;;;5083999;28;20028;-75
2022/12/03 07:20:00;;;;;;;31.95;16.83;;;0.80;99.90;;;;;;5082197;28;20452;-75
2022/12/03 07:22:26;;;;;;;33.80;17.70;;;0.80;99.90;;;;;;5075500;28;20024;-75
2022/12/03 07:24:52;;;;;;;32.92;17.08;;;0.70;99.90;;;;;;5079412;28;20103;-75
2022/12/03 07:27:17;;;;;;;34.28;18.08;;;0.60;99.90;;;;;;5083876;28;20486;-74
2022/12/03 07:29:43;;;;;;;33.40;17.67;;;0.60;99.90;;;;;;5077582;28;20078;-75
2022/12/03 07:32:08;;;;;;;36.85;17.92;;;0.60;99.90;;;;;;5084270;28;20043;-75
2022/12/03 07:34:34;;;;;;;35.25;18.70;;;0.60;99.90;;;;;;5082515;28;20107;-80
2022/12/03 07:36:59;;;;;;;34.25;18.52;;;0.70;99.90;;;;;;5083524;28;20049;-82
2022/12/03 07:39:25;;;;;;;36.40;18.50;;;0.70;99.90;;;;;;5081389;28;20017;-81
2022/12/03 07:41:51;;;;;;;36.80;19.48;;;0.70;99.90;;;;;;5080198;28;20058;-81
2022/12/03 07:44:16;;;;;;;41.00;19.95;;;0.70;99.90;;;;;;5078260;28;20110;-78
2022/12/03 07:46:42;;;;;;;42.20;20.55;;;0.70;99.90;;;;;;5079330;28;20103;-77
2022/12/03 07:49:08;;;;;;;39.45;20.48;;;0.80;99.90;;;;;;5082755;28;20031;-77
2022/12/03 07:51:33;;;;;;;38.38;19.45;;;0.70;99.90;;;;;;5080777;28;20025;-77
2022/12/03 07:53:59;;;;;;;40.55;21.20;;;0.80;99.90;;;;;;5084080;28;20478;-78
2022/12/03 07:56:25;;;;;;;42.67;21.17;;;0.80;99.90;;;;;;5084678;28;20034;-77
2022/12/03 07:58:50;;;;;;;43.78;21.88;;;0.80;99.90;;;;;;5086953;28;20092;-78
2022/12/03 08:01:16;;;;;;;40.60;21.17;;;0.90;99.90;;;;;;5082745;28;20020;-77
2022/12/03 08:03:42;;;;;;;43.15;20.83;;;0.90;99.90;;;;;;5079002;28;20032;-77
2022/12/03 08:06:08;;;;;;;41.97;21.55;;;1.00;99.90;;;;;;5083934;28;20102;-78
2022/12/03 08:08:33;;;;;;;41.95;20.58;;;1.00;99.90;;;;;;5083576;28;20043;-77
2022/12/03 08:11:02;;;;;;;41.63;21.20;;;1.00;99.90;;;;;;5079570;28;20059;-78
2022/12/03 08:13:28;;;;;;;40.97;21.65;;;1.00;99.90;;;;;;5080846;28;20029;-79
2022/12/03 08:15:59;;;;;;;43.90;22.48;;;1.00;99.90;;;;;;5081034;28;20580;-79
2022/12/03 08:18:27;;;;;;;44.67;22.67;;;1.00;99.90;;;;;;5076844;28;20060;-79
2022/12/03 08:20:52;;;;;;;43.03;21.65;;;1.00;99.90;;;;;;5082800;28;20008;-79
2022/12/03 08:23:21;;;;;;;47.00;22.90;;;1.00;99.90;;;;;;5076616;28;20031;-80
2022/12/03 08:25:48;;;;;;;44.00;22.55;;;1.00;99.90;;;;;;5083309;28;20220;-80
2022/12/03 08:28:21;;;;;;;42.95;21.55;;;1.00;99.90;;;;;;5084654;28;20496;-79
2022/12/03 08:31:06;;;;;;;;;;;0.90;99.90;;;;;;5081363;28;20027;-80
2022/12/03 08:33:34;;;;;;;46.13;22.05;;;0.90;99.90;;;;;;5076597;28;19915;-79
2022/12/03 08:36:11;;;;;;;45.92;22.58;;;0.90;99.90;;;;;;5082182;28;20020;-79
2022/12/03 08:38:37;;;;;;;44.45;21.98;;;0.90;99.90;;;;;;5062637;28;20063;-79
2022/12/03 08:41:12;;;;;;;49.25;23.85;;;0.90;99.90;;;;;;5077274;28;20047;-80
2022/12/03 08:43:42;;;;;;;45.55;21.83;;;0.90;99.90;;;;;;5075745;28;20039;-80
2022/12/03 08:46:17;;;;;;;45.38;21.75;;;0.90;99.90;;;;;;5085651;28;20050;-81
2022/12/03 08:48:44;;;;;;;45.20;21.42;;;0.90;99.90;;;;;;5080299;28;20013;-80
2022/12/03 08:51:24;;;;;;;48.70;22.75;;;0.90;99.90;;;;;;5078027;28;20020;-80
2022/12/03 08:54:12;;;;;;;46.67;22.42;;;0.90;99.90;;;;;;5079267;28;20043;-80
2022/12/03 08:56:38;;;;;;;43.67;21.30;;;0.90;99.90;;;;;;5075034;28;20085;-79
2022/12/03 08:59:29;;;;;;;44.88;20.20;;;0.90;99.90;;;;;;5079611;28;20020;-80
2022/12/03 09:01:59;;;;;;;44.15;21.15;;;1.00;99.90;;;;;;5079610;28;20486;-79
2022/12/03 09:04:27;;;;;;;43.88;21.75;;;1.00;99.90;;;;;;5085504;28;20541;-79
2022/12/03 09:06:54;;;;;;;43.28;21.25;;;1.00;99.90;;;;;;5083424;28;20023;-80
2022/12/03 09:09:20;;;;;;;45.88;22.00;;;1.00;99.90;;;;;;5077409;28;20238;-79
2022/12/03 09:11:46;;;;;;;44.80;21.80;;;1.10;99.90;;;;;;5079816;28;20020;-79
2022/12/03 09:14:13;;;;;;;42.17;21.60;;;1.10;99.90;;;;;;5075015;28;20081;-80
2022/12/03 09:16:39;;;;;;;41.20;20.25;;;1.10;99.90;;;;;;5078866;28;20034;-80
2022/12/03 09:19:05;;;;;;;42.88;21.70;;;1.10;99.90;;;;;;5081684;28;20024;-80
2022/12/03 09:21:31;;;;;;;42.95;21.85;;;1.00;99.90;;;;;;5082653;28;20066;-80
2022/12/03 09:23:57;;;;;;;44.38;21.83;;;1.00;99.90;;;;;;5077885;28;20081;-80
2022/12/03 09:26:22;;;;;;;46.80;21.20;;;1.10;99.90;;;;;;5082341;28;20558;-80
2022/12/03 09:28:48;;;;;;;44.55;22.70;;;1.10;99.90;;;;;;5073584;28;20103;-80
2022/12/03 09:31:15;;;;;;;43.40;21.40;;;1.10;99.90;;;;;;5082882;28;20024;-81
2022/12/03 09:33:40;;;;;;;41.40;21.00;;;1.10;99.90;;;;;;5080039;28;20024;-80
2022/12/03 09:36:06;;;;;;;42.20;21.65;;;1.10;99.90;;;;;;5080703;28;20395;-80
2022/12/03 09:38:32;;;;;;;42.20;21.02;;;1.10;99.90;;;;;;5077933;28;20035;-80
2022/12/03 09:40:58;;;;;;;41.38;21.10;;;1.10;99.90;;;;;;5084129;28;20020;-81
2022/12/03 09:43:27;;;;;;;38.97;19.90;;;1.10;99.90;;;;;;5083023;28;20119;-80
2022/12/03 09:45:53;;;;;;;38.85;19.70;;;1.10;99.90;;;;;;5073780;28;20474;-79
2022/12/03 09:48:20;;;;;;;40.47;21.05;;;1.10;99.90;;;;;;5070608;28;20032;-80
2022/12/03 09:50:46;;;;;;;40.17;20.38;;;1.10;99.90;;;;;;5059430;28;20116;-79
2022/12/03 09:53:31;;;;;;;41.50;20.58;;;1.10;99.90;;;;;;5019231;28;20084;-79
2022/12/03 09:55:58;;;;;;;40.22;20.55;;;1.10;99.90;;;;;;5056987;28;20663;-78
2022/12/03 09:58:25;;;;;;;39.05;20.00;;;1.00;99.90;;;;;;5065132;28;20059;-79
2022/12/03 10:00:52;;;;;;;42.47;20.67;;;1.10;99.90;;;;;;5064208;28;20508;-79
2022/12/03 10:03:22;;;;;;;41.10;20.23;;;1.10;99.90;;;;;;5054070;28;20017;-78
2022/12/03 10:05:48;;;;;;;38.20;19.27;;;1.00;99.90;;;;;;5052346;28;20041;-76
2022/12/03 10:08:19;;;;;;;42.53;20.80;;;1.10;99.90;;;;;;5056145;28;20031;-80
2022/12/03 10:10:46;;;;;;;40.63;20.33;;;1.10;99.90;;;;;;5054066;28;20037;-79
2022/12/03 10:13:23;;;;;;;41.95;19.98;;;1.10;99.90;;;;;;5055622;28;20533;-79
2022/12/03 10:15:51;;;;;;;35.72;17.85;;;1.10;99.90;;;;;;5052519;28;20023;-77
2022/12/03 10:18:20;;;;;;;39.15;19.73;;;1.10;99.90;;;;;;5045159;28;20509;-78
2022/12/03 10:20:46;;;;;;;41.85;20.23;;;1.10;99.90;;;;;;5056980;28;20024;-75
2022/12/03 10:23:23;;;;;;;39.08;19.77;;;1.10;99.90;;;;;;5051357;28;20025;-77
2022/12/03 10:25:52;;;;;;;37.25;18.27;;;1.20;99.90;;;;;;5052725;28;20440;-77
2022/12/03 10:28:38;;;;;;;35.70;18.20;;;1.20;99.90;;;;;;5054509;28;20410;-77
2022/12/03 10:31:08;;;;;;;36.25;18.40;;;1.20;99.90;;;;;;5049837;28;20067;-77
2022/12/03 10:33:39;;;;;;;35.58;18.88;;;1.20;99.90;;;;;;5052174;28;20040;-77
2022/12/03 10:36:24;;;;;;;34.33;17.33;;;1.20;99.90;;;;;;5062692;28;20031;-77
2022/12/03 10:39:13;;;;;;;33.35;17.35;;;1.20;99.90;;;;;;5058237;28;21008;-77
2022/12/03 10:41:41;;;;;;;35.63;18.10;;;1.20;99.90;;;;;;5059445;28;20513;-78
2022/12/03 10:44:19;;;;;;;33.15;17.63;;;1.20;99.90;;;;;;5064884;28;20048;-78
2022/12/03 10:47:02;;;;;;;34.10;17.90;;;1.20;99.90;;;;;;5077320;28;20024;-78
2022/12/03 10:49:28;;;;;;;35.45;17.95;;;1.30;99.90;;;;;;5079618;28;20021;-78
2022/12/03 10:51:54;;;;;;;36.00;18.65;;;1.20;99.90;;;;;;5081038;28;20023;-77
2022/12/03 10:54:22;;;;;;;36.42;18.42;;;1.20;99.90;;;;;;5075895;28;20439;-77
2022/12/03 10:56:50;;;;;;;34.75;17.25;;;1.20;99.90;;;;;;5079657;28;20035;-79
2022/12/03 10:59:19;;;;;;;35.67;18.52;;;1.20;99.90;;;;;;5080325;28;20367;-78
2022/12/03 11:01:45;;;;;;;35.75;18.30;;;1.20;99.90;;;;;;5082300;28;20044;-78
2022/12/03 11:04:21;;;;;;;32.83;16.88;;;1.20;99.90;;;;;;5082104;28;20050;-80
2022/12/03 11:06:48;;;;;;;35.53;17.80;;;1.20;99.90;;;;;;5078080;28;20070;-80
2022/12/03 11:09:21;;;;;;;36.35;18.85;;;1.30;99.90;;;;;;5085632;28;20024;-76
2022/12/03 11:11:47;;;;;;;;;;;1.20;99.90;;;;;;5077944;28;20032;-80
2022/12/03 11:14:12;;;;;;;35.85;17.77;;;1.20;99.90;;;;;;5076600;28;19973;-80
2022/12/03 11:16:38;;;;;;;35.63;17.85;;;1.30;99.90;;;;;;5075399;28;20020;-80
2022/12/03 11:19:18;;;;;;;38.78;19.80;;;1.30;99.90;;;;;;5080050;28;20063;-80
2022/12/03 11:22:02;;;;;;;33.50;17.92;;;1.20;99.90;;;;;;5083785;28;20028;-80
2022/12/03 11:24:28;;;;;;;39.83;19.10;;;1.30;99.90;;;;;;5072035;28;20026;-81
2022/12/03 11:26:54;;;;;;;37.20;19.95;;;1.30;99.90;;;;;;5081803;28;20091;-81
2022/12/03 11:29:58;;;;;;;36.45;18.98;;;1.30;99.90;;;;;;5088954;28;20066;-80
2022/12/03 11:32:42;;;;;;;38.85;19.38;;;1.30;99.90;;;;;;5082013;28;20028;-80
2022/12/03 11:35:23;;;;;;;39.28;20.15;;;1.30;99.90;;;;;;5084400;28;20101;-80
2022/12/03 11:37:48;;;;;;;36.72;19.40;;;1.30;99.90;;;;;;5087700;28;20504;-81
2022/12/03 11:40:17;;;;;;;37.80;19.83;;;1.30;99.90;;;;;;5080453;28;20032;-79
2022/12/03 11:42:44;;;;;;;40.95;20.63;;;1.30;99.90;;;;;;5086591;28;20012;-79
2022/12/03 11:45:30;;;;;;;41.35;21.45;;;1.30;99.90;;;;;;5077961;28;20040;-79
2022/12/03 11:48:04;;;;;;;42.45;21.33;;;1.30;99.90;;;;;;5084859;28;20035;-78
2022/12/03 11:50:50;;;;;;;46.35;21.60;;;1.30;99.90;;;;;;5086655;28;20032;-82
2022/12/03 11:53:23;;;;;;;40.75;20.92;;;1.30;99.90;;;;;;5068229;28;20042;-82
2022/12/03 11:56:05;;;;;;;44.10;21.58;;;1.20;99.90;;;;;;5082508;28;20957;-80
2022/12/03 11:58:31;;;;;;;41.58;21.15;;;1.20;99.90;;;;;;5091032;28;20036;-79
2022/12/03 12:00:59;;;;;;;42.97;21.58;;;1.30;99.90;;;;;;5084999;28;20032;-80
2022/12/03 12:03:35;;;;;;;47.50;21.95;;;1.20;99.90;;;;;;5080952;28;20032;-80
2022/12/03 12:06:05;;;;;;;45.95;21.83;;;1.20;99.90;;;;;;5081385;28;20024;-80
2022/12/03 12:08:31;;;;;;;44.70;21.95;;;1.20;99.90;;;;;;5087732;28;20028;-78
2022/12/03 12:10:57;;;;;;;43.47;21.70;;;1.20;99.90;;;;;;5078615;28;20027;-80
2022/12/03 12:13:29;;;;;;;45.20;21.63;;;1.20;99.90;;;;;;5082780;28;20136;-81
2022/12/03 12:15:56;;;;;;;45.15;21.65;;;1.20;99.90;;;;;;5077322;28;20036;-80
2022/12/03 12:18:39;;;;;;;43.60;22.23;;;1.20;99.90;;;;;;5085355;28;20228;-81
2022/12/03 12:21:43;;;;;;;43.70;21.73;;;1.20;99.90;;;;;;5085642;28;20099;-80
2022/12/03 12:24:40;;;;;;;45.33;21.98;;;1.20;99.90;;;;;;5081955;28;20070;-81
2022/12/03 12:27:08;;;;;;;50.42;22.77;;;1.20;99.90;;;;;;5074731;28;20028;-80
2022/12/03 12:29:36;;;;;;;43.67;22.10;;;1.10;99.90;;;;;;5085897;28;20553;-80
2022/12/03 12:32:11;;;;;;;45.00;21.92;;;1.20;99.90;;;;;;5079201;28;20024;-79
2022/12/03 12:34:42;;;;;;;45.75;22.60;;;1.10;99.90;;;;;;5081412;28;20032;-79
2022/12/03 12:37:15;;;;;;;50.58;24.38;;;1.20;99.90;;;;;;5080609;28;20418;-77
2022/12/03 12:39:41;;;;;;;;;;;1.20;99.90;;;;;;5095452;28;20069;-79
2022/12/03 12:42:28;;;;;;;45.97;21.65;;;1.20;99.90;;;;;;5079916;28;19912;-79
2022/12/03 12:44:59;;;;;;;47.92;23.20;;;1.20;99.90;;;;;;5076867;28;20405;-79
2022/12/03 12:47:27;;;;;;;45.20;22.48;;;1.20;99.90;;;;;;5077798;28;20050;-79
2022/12/03 12:49:54;;;;;;;47.85;22.30;;;1.20;99.90;;;;;;5080622;28;20020;-80
2022/12/03 12:52:20;;;;;;;49.65;24.08;;;1.20;99.90;;;;;;5082218;28;20603;-79
2022/12/03 12:54:45;;;;;;;43.92;22.27;;;1.10;99.90;;;;;;5078275;28;20031;-79
2022/12/03 12:57:15;;;;;;;48.92;23.08;;;1.10;99.90;;;;;;5078852;28;20039;-79
2022/12/03 12:59:41;;;;;;;49.25;23.55;;;1.10;99.90;;;;;;5073784;28;20035;-80
2022/12/03 13:02:39;;;;;;;47.10;23.83;;;1.10;99.90;;;;;;5081055;28;20520;-80
2022/12/03 13:05:09;;;;;;;50.33;23.33;;;1.10;99.90;;;;;;5081124;28;20028;-80